Time;durP1;ratioP1;P1;durP2;ratioP2;P2;SDS_P1;SDS_P2;PMS_P1;PMS_P2;Temp;Humidity;BMP_temperature;BMP_pressure;BME280_temperature;BME280_humidity;BME280_pressure;Samples;Min_cycle;Max_cycle;Signal;HPM_P1;HPM_P2
2022/07/02 00:00:02;;;;;;;13.70;6.60;;;14.30;99.90;;;;;;5061048;28;20021;-79
2022/07/02 00:02:35;;;;;;;13.90;7.00;;;14.30;99.90;;;;;;5060425;28;20475;-79
2022/07/02 00:05:06;;;;;;;14.15;7.25;;;14.30;99.90;;;;;;5062697;28;20437;-79
2022/07/02 00:07:32;;;;;;;13.10;6.80;;;14.30;99.90;;;;;;5060411;28;20073;-79
2022/07/02 00:09:59;;;;;;;20.13;7.80;;;14.30;99.90;;;;;;5061369;28;20083;-79
2022/07/02 00:12:26;;;;;;;15.35;7.35;;;14.20;99.90;;;;;;5060809;28;20111;-79
2022/07/02 00:14:58;;;;;;;16.38;6.93;;;14.10;99.90;;;;;;5059068;28;20053;-79
2022/07/02 00:17:23;;;;;;;13.27;6.00;;;14.10;99.90;;;;;;5061319;28;20056;-79
2022/07/02 00:19:51;;;;;;;10.00;5.97;;;14.10;99.90;;;;;;5061100;28;20053;-79
2022/07/02 00:22:18;;;;;;;14.80;6.30;;;14.10;99.90;;;;;;5061561;28;20047;-79
2022/07/02 00:24:45;;;;;;;13.32;6.25;;;14.00;99.90;;;;;;5058612;28;20109;-79
2022/07/02 00:27:13;;;;;;;13.95;6.25;;;14.10;99.90;;;;;;5060164;28;20142;-79
2022/07/02 00:29:58;;;;;;;13.00;5.75;;;14.00;99.90;;;;;;5059796;28;20079;-79
2022/07/02 00:32:33;;;;;;;12.52;6.40;;;14.10;99.90;;;;;;5060847;28;20048;-79
2022/07/02 00:35:09;;;;;;;18.45;5.93;;;14.10;99.90;;;;;;5059598;28;20495;-79
2022/07/02 00:37:41;;;;;;;12.95;6.03;;;14.10;99.90;;;;;;5061921;28;20048;-79
2022/07/02 00:40:08;;;;;;;9.07;5.50;;;14.10;99.90;;;;;;5057465;28;20498;-79
2022/07/02 00:42:39;;;;;;;14.45;6.35;;;14.10;99.90;;;;;;5061277;28;20056;-79
2022/07/02 00:45:05;;;;;;;17.52;6.38;;;14.10;99.90;;;;;;5060786;28;20029;-79
2022/07/02 00:47:33;;;;;;;13.65;5.78;;;14.10;99.90;;;;;;5061266;28;20056;-79
2022/07/02 00:50:03;;;;;;;17.30;5.65;;;14.10;99.90;;;;;;5061194;28;20037;-79
2022/07/02 00:52:29;;;;;;;12.25;6.40;;;14.10;99.90;;;;;;5060683;28;20079;-79
2022/07/02 00:54:54;;;;;;;14.48;6.43;;;14.10;99.90;;;;;;5060720;28;20099;-79
2022/07/02 00:57:20;;;;;;;16.27;6.07;;;14.10;99.90;;;;;;5061670;28;20052;-79
2022/07/02 00:59:48;;;;;;;15.60;6.88;;;14.00;99.90;;;;;;5061924;28;20081;-79
2022/07/02 01:02:15;;;;;;;14.52;5.95;;;14.00;99.90;;;;;;5060014;28;20068;-79
2022/07/02 01:04:41;;;;;;;13.43;6.68;;;14.00;99.90;;;;;;5060256;28;20036;-79
2022/07/02 01:07:09;;;;;;;13.45;6.20;;;14.00;99.90;;;;;;5062700;28;20044;-80
2022/07/02 01:12:35;;;;;;;12.57;6.07;;;13.90;99.90;;;;;;5059938;28;20144;-79
2022/07/02 01:15:01;;;;;;;15.75;7.85;;;13.90;99.90;;;;;;5062405;28;20063;-80
2022/07/02 01:17:27;;;;;;;15.90;6.30;;;13.90;99.90;;;;;;5061206;28;20041;-80
2022/07/02 01:19:53;;;;;;;14.45;6.20;;;13.90;99.90;;;;;;5060002;28;20036;-80
2022/07/02 01:22:31;;;;;;;13.82;6.32;;;13.80;99.90;;;;;;5059010;28;20021;-79
2022/07/02 01:24:57;;;;;;;21.58;6.05;;;13.80;99.90;;;;;;5058123;28;20044;-79
2022/07/02 01:27:23;;;;;;;12.85;6.18;;;13.80;99.90;;;;;;5059922;28;20048;-79
2022/07/02 01:29:49;;;;;;;15.65;6.60;;;13.80;99.90;;;;;;5058896;28;20479;-79
2022/07/02 01:32:15;;;;;;;14.63;6.65;;;13.70;99.90;;;;;;5060312;28;20041;-79
2022/07/02 01:34:49;;;;;;;11.98;5.85;;;13.70;99.90;;;;;;5061962;28;20044;-79
2022/07/02 01:37:18;;;;;;;11.05;5.80;;;13.60;99.90;;;;;;5060710;28;20049;-79
2022/07/02 01:39:45;;;;;;;10.85;5.63;;;13.70;99.90;;;;;;5060825;28;20094;-79
2022/07/02 01:42:12;;;;;;;12.13;6.65;;;13.60;99.90;;;;;;5061306;28;20045;-79
2022/07/02 01:44:38;;;;;;;15.77;6.72;;;13.60;99.90;;;;;;5059626;28;20041;-79
2022/07/02 01:47:06;;;;;;;13.15;6.30;;;13.50;99.90;;;;;;5059385;28;20045;-79
2022/07/02 01:49:32;;;;;;;13.18;6.63;;;13.50;99.90;;;;;;5057398;28;20383;-80
2022/07/02 01:51:59;;;;;;;15.18;7.18;;;13.50;99.90;;;;;;5056947;28;20041;-79
2022/07/02 01:54:25;;;;;;;13.40;6.70;;;13.40;99.90;;;;;;5061059;28;20057;-79
2022/07/02 01:56:51;;;;;;;12.13;6.00;;;13.40;99.90;;;;;;5061008;28;20107;-79
2022/07/02 01:59:16;;;;;;;13.77;6.80;;;13.30;99.90;;;;;;5059460;28;20041;-79
2022/07/02 02:01:43;;;;;;;14.07;7.18;;;13.30;99.90;;;;;;5059510;28;20045;-79
2022/07/02 02:04:09;;;;;;;16.30;7.47;;;13.30;99.90;;;;;;5058986;28;20118;-79
2022/07/02 02:06:37;;;;;;;17.00;7.38;;;13.20;99.90;;;;;;5058772;28;20049;-79
2022/07/02 02:09:06;;;;;;;17.60;7.05;;;13.20;99.90;;;;;;5058939;28;20052;-79
2022/07/02 02:11:32;;;;;;;12.10;6.57;;;13.20;99.90;;;;;;5058848;28;20109;-79
2022/07/02 02:13:58;;;;;;;13.27;6.60;;;13.20;99.90;;;;;;5058764;28;20094;-79
2022/07/02 02:16:28;;;;;;;12.07;5.88;;;13.20;99.90;;;;;;5058813;28;20052;-79
2022/07/02 02:18:56;;;;;;;15.90;6.25;;;13.20;99.90;;;;;;5058216;28;20101;-79
2022/07/02 02:21:24;;;;;;;12.25;6.03;;;13.20;99.90;;;;;;5058922;28;20128;-80
2022/07/02 02:23:50;;;;;;;19.42;6.65;;;13.20;99.90;;;;;;5058723;28;20040;-79
2022/07/02 02:26:16;;;;;;;13.68;6.68;;;13.20;99.90;;;;;;5057296;28;20395;-80
2022/07/02 02:28:42;;;;;;;18.15;6.57;;;13.20;99.90;;;;;;5057718;28;20467;-79
2022/07/02 02:31:07;;;;;;;15.32;6.72;;;13.20;99.90;;;;;;5057287;28;20100;-79
2022/07/02 02:33:33;;;;;;;18.23;6.80;;;13.20;99.90;;;;;;5059452;28;20494;-79
2022/07/02 02:35:59;;;;;;;19.15;6.90;;;13.20;99.90;;;;;;5060567;28;20052;-79
2022/07/02 02:38:25;;;;;;;14.68;7.30;;;13.20;99.90;;;;;;5059406;28;20029;-79
2022/07/02 02:40:51;;;;;;;19.38;8.10;;;13.20;99.90;;;;;;5056836;28;20104;-79
2022/07/02 02:43:16;;;;;;;19.13;7.75;;;13.10;99.90;;;;;;5058823;28;20045;-79
2022/07/02 02:45:42;;;;;;;14.27;7.43;;;13.20;99.90;;;;;;5059091;28;20533;-79
2022/07/02 02:48:08;;;;;;;19.95;7.90;;;13.20;99.90;;;;;;5058096;28;20033;-79
2022/07/02 02:50:33;;;;;;;20.55;7.68;;;13.20;99.90;;;;;;5059594;28;20149;-79
2022/07/02 02:52:59;;;;;;;14.98;7.35;;;13.20;99.90;;;;;;5057268;28;20056;-79
2022/07/02 02:55:25;;;;;;;13.65;7.63;;;13.20;99.90;;;;;;5056510;28;20057;-79
2022/07/02 02:57:52;;;;;;;25.20;8.45;;;13.30;99.90;;;;;;5057465;28;20095;-79
2022/07/02 03:00:17;;;;;;;21.73;7.88;;;13.30;99.90;;;;;;5055798;28;20048;-79
2022/07/02 03:02:43;;;;;;;16.80;8.52;;;13.30;99.90;;;;;;5054487;28;20085;-79
2022/07/02 03:05:09;;;;;;;18.15;9.27;;;13.30;99.90;;;;;;5051140;28;20099;-79
2022/07/02 03:07:35;;;;;;;14.85;8.70;;;13.30;99.90;;;;;;5052139;28;20045;-79
2022/07/02 03:10:01;;;;;;;18.52;8.48;;;13.30;99.90;;;;;;5052343;28;20542;-79
2022/07/02 03:12:26;;;;;;;18.70;9.40;;;13.30;99.90;;;;;;5052007;28;20057;-79
2022/07/02 03:14:52;;;;;;;19.58;8.05;;;13.30;99.90;;;;;;5053038;28;20063;-79
2022/07/02 03:17:17;;;;;;;21.65;9.30;;;13.30;99.90;;;;;;5052273;28;20045;-79
2022/07/02 03:19:44;;;;;;;19.27;8.70;;;13.30;99.90;;;;;;5053548;28;20395;-79
2022/07/02 03:22:10;;;;;;;20.60;9.32;;;13.30;99.90;;;;;;5053160;28;20456;-79
2022/07/02 03:24:35;;;;;;;18.42;9.38;;;13.30;99.90;;;;;;5052259;28;20084;-79
2022/07/02 03:27:01;;;;;;;19.20;8.98;;;13.20;99.90;;;;;;5054437;28;20041;-79
2022/07/02 03:29:27;;;;;;;21.48;9.77;;;13.20;99.90;;;;;;5057462;28;20045;-79
2022/07/02 03:31:52;;;;;;;18.15;9.63;;;13.30;99.90;;;;;;5057369;28;20037;-79
2022/07/02 03:34:18;;;;;;;18.42;9.77;;;13.30;99.90;;;;;;5056965;28;20129;-79
2022/07/02 03:36:43;;;;;;;18.80;10.10;;;13.30;99.90;;;;;;5056202;28;20041;-79
2022/07/02 03:39:09;;;;;;;21.27;9.85;;;13.30;99.90;;;;;;5057222;28;20430;-79
2022/07/02 03:41:35;;;;;;;20.55;10.50;;;13.30;99.90;;;;;;5057157;28;20445;-79
2022/07/02 03:44:01;;;;;;;17.90;9.93;;;13.30;99.90;;;;;;5056814;28;20435;-79
2022/07/02 03:46:26;;;;;;;17.73;9.77;;;13.30;99.90;;;;;;5055571;28;20071;-79
2022/07/02 03:48:52;;;;;;;23.55;10.43;;;13.30;99.90;;;;;;5056988;28;20129;-79
2022/07/02 03:51:17;;;;;;;21.40;10.80;;;13.30;99.90;;;;;;5056865;28;20401;-79
2022/07/02 03:53:44;;;;;;;23.45;10.60;;;13.20;99.90;;;;;;5056870;28;20080;-79
2022/07/02 03:56:09;;;;;;;23.80;10.77;;;13.30;99.90;;;;;;5056816;28;20122;-79
2022/07/02 03:58:35;;;;;;;24.27;10.88;;;13.40;99.90;;;;;;5056945;28;20168;-79
2022/07/02 04:01:01;;;;;;;26.48;11.02;;;13.30;99.90;;;;;;5056816;28;20080;-79
2022/07/02 04:03:26;;;;;;;20.77;11.27;;;13.30;99.90;;;;;;5071952;28;20052;-79
2022/07/02 04:05:52;;;;;;;22.15;11.30;;;13.30;99.90;;;;;;5056406;28;20058;-79
2022/07/02 04:08:18;;;;;;;28.05;13.15;;;13.30;99.90;;;;;;5055236;28;20076;-79
2022/07/02 04:10:44;;;;;;;25.08;13.60;;;13.40;99.90;;;;;;5054994;28;20061;-79
2022/07/02 04:13:11;;;;;;;25.73;12.90;;;13.40;99.90;;;;;;5056587;28;20045;-79
2022/07/02 04:15:36;;;;;;;23.27;12.70;;;13.50;99.90;;;;;;5056316;28;20491;-79
2022/07/02 04:18:02;;;;;;;33.67;13.75;;;13.60;99.90;;;;;;5056513;28;20519;-79
2022/07/02 04:20:28;;;;;;;24.88;14.02;;;13.60;99.90;;;;;;5056571;28;20498;-79
2022/07/02 04:22:53;;;;;;;31.67;14.13;;;13.70;99.90;;;;;;5056472;28;20491;-79
2022/07/02 04:25:19;;;;;;;26.92;13.38;;;13.80;99.90;;;;;;5056100;28;20491;-79
2022/07/02 04:27:45;;;;;;;24.02;13.93;;;13.80;99.90;;;;;;5056158;28;20049;-79
2022/07/02 04:30:11;;;;;;;30.75;14.40;;;13.80;99.90;;;;;;5056293;28;20037;-79
2022/07/02 04:32:37;;;;;;;37.13;14.75;;;13.80;99.90;;;;;;5071758;28;20049;-79
2022/07/02 04:35:03;;;;;;;28.52;14.60;;;13.90;99.90;;;;;;5056210;28;20052;-79
2022/07/02 04:37:29;;;;;;;33.85;14.93;;;13.90;99.90;;;;;;5055836;28;20040;-79
2022/07/02 04:39:54;;;;;;;30.60;13.77;;;14.00;99.90;;;;;;5056062;28;20394;-79
2022/07/02 04:42:20;;;;;;;28.52;14.02;;;14.10;99.90;;;;;;5056249;28;20099;-79
2022/07/02 04:44:45;;;;;;;25.75;12.88;;;14.20;99.90;;;;;;5056040;28;20436;-79
2022/07/02 04:47:11;;;;;;;26.13;13.88;;;14.20;99.90;;;;;;5055750;28;20451;-79
2022/07/02 04:49:37;;;;;;;25.45;13.10;;;14.30;99.90;;;;;;5055821;28;20533;-79
2022/07/02 04:52:03;;;;;;;28.00;12.95;;;14.30;99.90;;;;;;5055665;28;20045;-79
2022/07/02 04:54:29;;;;;;;27.00;13.07;;;14.40;99.90;;;;;;5055725;28;20075;-79
2022/07/02 04:56:55;;;;;;;24.25;12.25;;;14.50;99.90;;;;;;5070987;28;20041;-79
2022/07/02 04:59:20;;;;;;;19.60;11.38;;;14.60;99.90;;;;;;5055638;28;20041;-79
2022/07/02 05:01:46;;;;;;;23.67;11.90;;;14.60;99.90;;;;;;5055686;28;20056;-80
2022/07/02 05:04:12;;;;;;;25.15;12.27;;;14.60;99.90;;;;;;5054218;28;20048;-79
2022/07/02 05:06:37;;;;;;;22.63;11.95;;;14.70;99.90;;;;;;5054167;28;20094;-79
2022/07/02 05:09:03;;;;;;;28.52;11.10;;;14.90;99.90;;;;;;5055057;28;20090;-79
2022/07/02 05:11:29;;;;;;;21.58;11.10;;;15.00;99.90;;;;;;5055623;28;20041;-79
2022/07/02 05:13:55;;;;;;;17.00;11.55;;;15.00;99.90;;;;;;5055421;28;20045;-79
2022/07/02 05:16:21;;;;;;;20.88;11.52;;;15.10;99.90;;;;;;5070617;28;20048;-79
2022/07/02 05:18:47;;;;;;;33.08;12.38;;;15.20;99.90;;;;;;5055297;28;20053;-79
2022/07/02 05:21:13;;;;;;;19.02;10.57;;;15.10;99.90;;;;;;5055351;28;20127;-79
2022/07/02 05:23:38;;;;;;;23.90;10.93;;;15.20;99.90;;;;;;5055156;28;20377;-79
2022/07/02 05:26:05;;;;;;;20.63;10.45;;;15.30;99.90;;;;;;5053960;28;20399;-79
2022/07/02 05:28:30;;;;;;;23.20;10.75;;;15.50;99.90;;;;;;5053974;28;20149;-79
2022/07/02 05:30:56;;;;;;;24.65;10.73;;;15.60;99.90;;;;;;5055043;28;20543;-79
2022/07/02 05:33:21;;;;;;;24.70;10.73;;;15.70;99.90;;;;;;5054855;28;20049;-79
2022/07/02 05:35:47;;;;;;;22.70;10.00;;;15.80;99.90;;;;;;5054587;28;20056;-79
2022/07/02 05:38:13;;;;;;;20.13;9.10;;;16.00;99.90;;;;;;5053423;28;20546;-79
2022/07/02 05:40:38;;;;;;;16.02;8.82;;;16.10;99.90;;;;;;5054643;28;20059;-79
2022/07/02 05:43:04;;;;;;;18.05;7.68;;;16.20;99.90;;;;;;5054840;28;20048;-80
2022/07/02 05:45:30;;;;;;;18.90;8.95;;;16.40;99.90;;;;;;5053347;28;20048;-79
2022/07/02 05:47:55;;;;;;;15.27;8.52;;;16.50;99.90;;;;;;5054704;28;20064;-79
2022/07/02 05:50:21;;;;;;;18.60;8.18;;;16.50;99.90;;;;;;5053999;28;20091;-79
2022/07/02 05:52:47;;;;;;;17.38;8.07;;;16.60;99.90;;;;;;5053164;28;20049;-80
2022/07/02 05:55:14;;;;;;;15.70;7.75;;;16.60;99.90;;;;;;5054578;28;20105;-79
2022/07/02 05:57:40;;;;;;;13.40;7.43;;;16.60;99.90;;;;;;5053143;28;20053;-79
2022/07/02 06:00:07;;;;;;;16.65;7.85;;;16.90;99.90;;;;;;5054356;28;20545;-79
2022/07/02 06:02:33;;;;;;;20.88;7.80;;;17.00;99.90;;;;;;5054446;28;20079;-79
2022/07/02 06:04:59;;;;;;;16.85;8.07;;;17.10;99.90;;;;;;5053018;28;20073;-79
2022/07/02 06:07:39;;;;;;;18.92;6.90;;;17.30;99.90;;;;;;5052900;28;20488;-79
2022/07/02 06:10:06;;;;;;;13.10;7.85;;;17.30;99.90;;;;;;5052756;28;20056;-79
2022/07/02 06:12:32;;;;;;;15.25;6.35;;;17.50;99.90;;;;;;5053099;28;20076;-79
2022/07/02 06:14:58;;;;;;;12.00;5.50;;;17.60;99.90;;;;;;5054259;28;20080;-79
2022/07/02 06:17:24;;;;;;;13.23;5.30;;;17.90;99.90;;;;;;5054197;28;20041;-79
2022/07/02 06:19:51;;;;;;;16.92;6.32;;;17.90;99.90;;;;;;5053993;28;20049;-79
2022/07/02 06:22:17;;;;;;;16.73;5.70;;;18.10;99.90;;;;;;5054199;28;20084;-80
2022/07/02 06:24:45;;;;;;;16.98;5.28;;;18.10;99.90;;;;;;5054138;28;20068;-80
2022/07/02 06:27:11;;;;;;;12.18;5.30;;;18.10;99.90;;;;;;5054125;28;20056;-79
2022/07/02 06:29:37;;;;;;;12.80;5.30;;;18.30;99.90;;;;;;5053893;28;20052;-79
2022/07/02 06:32:04;;;;;;;15.07;5.45;;;18.40;99.90;;;;;;5053828;28;20037;-85
2022/07/02 06:34:29;;;;;;;10.73;4.88;;;18.40;99.90;;;;;;5052744;28;20041;-78
2022/07/02 06:36:55;;;;;;;13.95;4.63;;;18.50;99.90;;;;;;5053638;28;20479;-79
2022/07/02 06:39:20;;;;;;;13.90;4.70;;;18.60;99.90;;;;;;5053952;28;20127;-79
2022/07/02 06:44:52;;;;;;;9.38;4.18;;;18.80;99.90;;;;;;4995545;28;20069;-80
2022/07/02 06:47:18;;;;;;;12.73;4.60;;;19.00;99.90;;;;;;5011792;28;20117;-79
2022/07/02 06:49:45;;;;;;;11.85;3.83;;;19.20;99.90;;;;;;5031710;28;20052;-79
2022/07/02 06:52:11;;;;;;;12.98;4.03;;;19.30;99.90;;;;;;5053684;28;20045;-79
2022/07/02 06:54:38;;;;;;;9.40;4.13;;;19.40;99.90;;;;;;5052336;28;20041;-79
2022/07/02 06:57:04;;;;;;;19.00;4.30;;;19.40;99.90;;;;;;5053802;28;20115;-79
2022/07/02 06:59:30;;;;;;;15.77;4.25;;;19.40;99.90;;;;;;5052368;28;20513;-79
2022/07/02 07:01:56;;;;;;;12.07;3.70;;;19.40;99.90;;;;;;5053700;28;20482;-79
2022/07/02 07:04:22;;;;;;;20.33;3.70;;;19.40;99.90;;;;;;5053628;28;20051;-79
2022/07/02 07:09:16;;;;;;;14.68;4.22;;;19.60;99.90;;;;;;5053082;28;20104;-79
2022/07/02 07:11:42;;;;;;;11.98;3.70;;;19.40;99.90;;;;;;5052052;28;20072;-81
2022/07/02 07:14:07;;;;;;;8.95;2.95;;;19.60;99.90;;;;;;5052033;28;20049;-81
2022/07/02 07:16:33;;;;;;;9.95;3.47;;;19.80;99.90;;;;;;5053542;28;20051;-81
2022/07/02 07:19:07;;;;;;;12.63;3.63;;;19.80;99.90;;;;;;5052227;28;20056;-79
2022/07/02 07:21:34;;;;;;;12.73;3.25;;;19.90;99.90;;;;;;5053387;28;20056;-80
2022/07/02 07:24:00;;;;;;;6.53;2.30;;;20.00;99.90;;;;;;5053237;28;20095;-79
2022/07/02 07:26:26;;;;;;;12.30;2.35;;;20.00;99.90;;;;;;5053131;28;20040;-80
2022/07/02 07:28:51;;;;;;;9.05;3.35;;;20.20;99.90;;;;;;5052024;28;20396;-80
2022/07/02 07:31:20;;;;;;;10.80;2.50;;;20.20;99.90;;;;;;5055273;28;20045;-80
2022/07/02 07:33:50;;;;;;;10.88;2.55;;;20.40;99.90;;;;;;5061941;28;20049;-81
2022/07/02 07:36:17;;;;;;;8.20;2.30;;;20.40;99.90;;;;;;5052985;28;20499;-80
2022/07/02 07:38:43;;;;;;;4.93;1.75;;;20.40;99.90;;;;;;5052996;28;20443;-79
2022/07/02 07:41:08;;;;;;;6.10;2.13;;;20.40;99.90;;;;;;5053079;28;20037;-79
2022/07/02 07:43:34;;;;;;;12.90;3.22;;;20.40;99.90;;;;;;5053330;28;20041;-80
2022/07/02 07:46:00;;;;;;;8.32;1.90;;;20.40;99.90;;;;;;5053209;28;20077;-78
2022/07/02 07:48:26;;;;;;;4.60;1.90;;;20.20;99.90;;;;;;5053253;28;20041;-80
2022/07/02 07:50:52;;;;;;;7.47;2.35;;;20.40;99.90;;;;;;5053108;28;20103;-80
2022/07/02 07:53:18;;;;;;;8.52;2.40;;;20.30;99.90;;;;;;5051942;28;20344;-81
2022/07/02 07:55:43;;;;;;;6.55;2.03;;;19.80;99.90;;;;;;5053078;28;20077;-83
2022/07/02 07:58:09;;;;;;;6.15;1.95;;;19.80;99.90;;;;;;5051694;28;20045;-81
2022/07/02 08:00:35;;;;;;;6.68;2.22;;;19.90;99.90;;;;;;5053124;28;20071;-81
2022/07/02 08:03:00;;;;;;;8.60;2.10;;;20.20;99.90;;;;;;5062788;28;20437;-81
2022/07/02 08:05:26;;;;;;;6.85;2.22;;;20.40;99.90;;;;;;5053065;28;20093;-80
2022/07/02 08:07:52;;;;;;;6.78;1.67;;;20.40;99.90;;;;;;5053068;28;20094;-81
2022/07/02 08:10:18;;;;;;;5.75;1.70;;;20.60;99.90;;;;;;5052590;28;20175;-80
2022/07/02 08:12:44;;;;;;;6.30;2.08;;;20.80;99.90;;;;;;5063568;28;20094;-80
2022/07/02 08:15:10;;;;;;;5.97;1.83;;;21.10;99.90;;;;;;5058755;28;20056;-81
2022/07/02 08:17:37;;;;;;;5.38;1.40;;;20.90;99.90;;;;;;5055374;28;20124;-80
2022/07/02 08:20:05;;;;;;;8.70;2.03;;;20.90;99.90;;;;;;5056463;28;20052;-79
2022/07/02 08:22:35;;;;;;;9.80;2.13;;;21.10;99.90;;;;;;5055230;28;20099;-79
2022/07/02 08:25:02;;;;;;;8.30;2.20;;;21.20;99.90;;;;;;5055105;28;20060;-79
2022/07/02 08:27:28;;;;;;;8.23;1.90;;;21.10;99.90;;;;;;5054896;28;20120;-83
2022/07/02 08:29:53;;;;;;;6.13;1.77;;;21.10;99.90;;;;;;5056345;28;20044;-78
2022/07/02 08:32:19;;;;;;;9.45;1.90;;;21.30;99.90;;;;;;5061892;28;20148;-79
2022/07/02 08:34:45;;;;;;;9.10;2.15;;;21.50;99.90;;;;;;5076264;28;20469;-79
2022/07/02 08:37:10;;;;;;;6.63;1.58;;;21.40;99.90;;;;;;5058960;28;20040;-79
2022/07/02 08:39:36;;;;;;;6.20;2.03;;;21.60;99.90;;;;;;5057648;28;20049;-79
2022/07/02 08:42:03;;;;;;;10.38;1.88;;;21.30;99.90;;;;;;5075740;28;20044;-79
2022/07/02 08:44:31;;;;;;;7.47;1.90;;;21.30;99.90;;;;;;5056572;28;20051;-79
2022/07/02 08:46:58;;;;;;;15.48;1.60;;;21.40;99.90;;;;;;5067068;28;20119;-79
2022/07/02 08:49:26;;;;;;;4.43;1.88;;;21.50;99.90;;;;;;5075700;28;20485;-79
2022/07/02 08:52:04;;;;;;;8.10;1.77;;;21.50;99.90;;;;;;5075723;28;20123;-79
2022/07/02 08:54:33;;;;;;;4.38;1.50;;;21.50;99.90;;;;;;5071185;28;20079;-79
2022/07/02 08:57:02;;;;;;;5.10;1.42;;;21.80;99.90;;;;;;5055520;28;20496;-79
2022/07/02 08:59:30;;;;;;;4.80;1.40;;;22.00;99.90;;;;;;5055590;28;20041;-79
2022/07/02 09:01:57;;;;;;;5.15;1.10;;;22.00;99.90;;;;;;5054100;28;20541;-78
2022/07/02 09:04:25;;;;;;;5.65;1.40;;;22.00;99.90;;;;;;5073458;28;20052;-79
2022/07/02 09:06:53;;;;;;;7.30;2.42;;;22.10;99.90;;;;;;5060484;28;20487;-79
2022/07/02 09:09:19;;;;;;;8.07;1.55;;;21.90;99.90;;;;;;5064793;28;20118;-79
2022/07/02 09:11:46;;;;;;;7.05;1.38;;;21.70;99.90;;;;;;5075451;28;20080;-79
2022/07/02 09:14:12;;;;;;;6.93;1.45;;;22.00;99.90;;;;;;5072233;28;20041;-79
2022/07/02 09:16:38;;;;;;;8.25;1.58;;;22.00;99.90;;;;;;5057744;28;20049;-79
2022/07/02 09:19:04;;;;;;;5.40;1.27;;;22.20;99.90;;;;;;5055658;28;20049;-79
2022/07/02 09:21:51;;;;;;;6.80;1.20;;;22.40;99.90;;;;;;5075068;28;20044;-79
2022/07/02 09:24:34;;;;;;;5.85;1.48;;;21.90;99.90;;;;;;5065409;28;20037;-79
2022/07/02 09:27:00;;;;;;;6.32;1.60;;;21.70;99.90;;;;;;5055024;28;20033;-79
2022/07/02 09:29:26;;;;;;;7.28;1.42;;;21.60;99.90;;;;;;5054887;28;20045;-79
2022/07/02 09:31:51;;;;;;;12.77;2.95;;;21.20;99.90;;;;;;5053648;28;20088;-79
2022/07/02 09:34:27;;;;;;;9.15;1.95;;;21.10;99.90;;;;;;5062879;28;20049;-78
2022/07/02 09:36:53;;;;;;;8.90;2.15;;;20.80;99.90;;;;;;5066403;28;20041;-79
2022/07/02 09:39:31;;;;;;;7.25;1.73;;;21.20;99.90;;;;;;5055260;28;20170;-79
2022/07/02 09:41:57;;;;;;;7.63;1.60;;;21.80;99.90;;;;;;5062586;28;20041;-78
2022/07/02 09:44:26;;;;;;;6.35;1.17;;;21.90;99.90;;;;;;5062339;28;20475;-78
2022/07/02 09:46:52;;;;;;;5.25;1.20;;;21.50;99.90;;;;;;5064455;28;20126;-79
2022/07/02 09:49:17;;;;;;;6.50;1.20;;;21.30;99.90;;;;;;5054694;28;20076;-79
2022/07/02 09:51:53;;;;;;;7.47;1.52;;;21.00;99.90;;;;;;5054621;28;20033;-79
2022/07/02 09:54:23;;;;;;;4.95;1.80;;;21.00;99.90;;;;;;5054413;28;20099;-79
2022/07/02 09:56:57;;;;;;;6.78;1.80;;;21.10;99.90;;;;;;5054462;28;20396;-79
2022/07/02 09:59:24;;;;;;;15.43;2.88;;;21.30;99.90;;;;;;5054547;28;20059;-79
2022/07/02 10:01:50;;;;;;;4.85;2.10;;;21.70;99.90;;;;;;5054349;28;20041;-79
2022/07/02 10:04:16;;;;;;;6.53;1.55;;;21.80;99.90;;;;;;5052870;28;20051;-79
2022/07/02 10:06:43;;;;;;;5.05;1.33;;;22.00;99.90;;;;;;5062024;28;20049;-78
2022/07/02 10:09:11;;;;;;;4.88;2.13;;;22.30;99.90;;;;;;5073476;28;20057;-78
2022/07/02 10:11:37;;;;;;;3.28;1.40;;;22.30;99.90;;;;;;5062634;28;20048;-78
2022/07/02 10:14:04;;;;;;;5.53;1.70;;;22.20;99.90;;;;;;5074267;28;20032;-78
2022/07/02 10:16:31;;;;;;;5.28;1.45;;;22.40;99.90;;;;;;5074078;28;20511;-78
2022/07/02 10:19:01;;;;;;;6.05;1.75;;;22.20;99.90;;;;;;5072729;28;20083;-78
2022/07/02 10:21:28;;;;;;;5.18;1.50;;;22.40;99.90;;;;;;5073805;28;20433;-78
2022/07/02 10:23:54;;;;;;;6.30;1.67;;;22.40;99.90;;;;;;5074172;28;20059;-78
2022/07/02 10:26:22;;;;;;;6.15;1.70;;;22.00;99.90;;;;;;5072680;28;20085;-78
2022/07/02 10:28:49;;;;;;;5.13;1.50;;;21.90;99.90;;;;;;5061422;28;20552;-78
2022/07/02 10:31:20;;;;;;;4.18;1.55;;;21.90;99.90;;;;;;5054073;28;20121;-78
2022/07/02 10:34:44;;;;;;;7.33;1.93;;;22.10;99.90;;;;;;5053922;28;20052;-79
2022/07/02 10:37:10;;;;;;;;;;;22.40;99.90;;;;;;5042808;28;20468;-77
2022/07/02 10:39:41;;;;;;;4.57;1.67;;;22.40;99.90;;;;;;5053704;28;20374;-78
2022/07/02 10:42:07;;;;;;;7.32;1.65;;;22.70;99.90;;;;;;5071114;28;20040;-78
2022/07/02 10:44:40;;;;;;;7.60;1.98;;;22.60;99.90;;;;;;5073845;28;20078;-78
2022/07/02 10:47:16;;;;;;;5.60;1.63;;;22.60;99.90;;;;;;5073173;28;20043;-78
2022/07/02 10:49:42;;;;;;;3.70;1.30;;;22.60;99.90;;;;;;5059855;28;20055;-78
2022/07/02 10:52:08;;;;;;;7.65;2.08;;;22.70;99.90;;;;;;5071229;28;20131;-78
2022/07/02 10:54:33;;;;;;;13.65;2.03;;;22.80;99.90;;;;;;5058402;28;20391;-78
2022/07/02 10:56:59;;;;;;;4.57;1.70;;;22.60;99.90;;;;;;5053738;28;20048;-78
2022/07/02 10:59:35;;;;;;;6.65;2.00;;;22.70;99.90;;;;;;5053765;28;20041;-79
2022/07/02 11:02:06;;;;;;;8.82;1.50;;;22.70;99.90;;;;;;5053842;28;20048;-78
2022/07/02 11:04:32;;;;;;;4.28;1.88;;;22.50;99.90;;;;;;5053585;28;20116;-78
2022/07/02 11:07:23;;;;;;;4.72;1.63;;;22.30;99.90;;;;;;5059591;28;20515;-78
2022/07/02 11:09:53;;;;;;;4.22;1.35;;;22.30;99.90;;;;;;5067764;28;20083;-78
2022/07/02 11:12:26;;;;;;;6.68;1.92;;;22.10;99.90;;;;;;5065395;28;20112;-79
2022/07/02 11:14:54;;;;;;;3.72;1.65;;;21.90;99.90;;;;;;5053617;28;20187;-78
2022/07/02 11:17:23;;;;;;;6.35;2.03;;;22.00;99.90;;;;;;5061990;28;20051;-78
2022/07/02 11:19:54;;;;;;;6.63;1.75;;;21.90;99.90;;;;;;5058217;28;20053;-78
2022/07/02 11:22:20;;;;;;;4.15;1.50;;;22.00;99.90;;;;;;5057773;28;20110;-78
2022/07/02 11:24:46;;;;;;;3.83;1.33;;;21.90;99.90;;;;;;5073946;28;20048;-78
2022/07/02 11:27:13;;;;;;;5.43;1.60;;;21.80;99.90;;;;;;5063992;28;20091;-78
2022/07/02 11:29:39;;;;;;;5.15;1.80;;;21.50;99.90;;;;;;5053316;28;20064;-78
2022/07/02 11:32:05;;;;;;;4.22;1.52;;;21.40;99.90;;;;;;5053121;28;20403;-78
2022/07/02 11:34:31;;;;;;;6.82;1.55;;;21.30;99.90;;;;;;5053239;28;20048;-78
2022/07/02 11:36:57;;;;;;;7.28;2.78;;;21.50;99.90;;;;;;5053404;28;20037;-78
2022/07/02 11:39:25;;;;;;;2.90;1.33;;;21.70;99.90;;;;;;5068622;28;20049;-78
2022/07/02 11:41:51;;;;;;;6.30;1.73;;;21.80;99.90;;;;;;5059672;28;20041;-78
2022/07/02 11:44:20;;;;;;;7.13;1.70;;;21.50;99.90;;;;;;5066976;28;20386;-78
2022/07/02 11:46:50;;;;;;;3.97;1.40;;;21.50;99.90;;;;;;5073429;28;20049;-78
2022/07/02 11:49:19;;;;;;;3.70;2.15;;;21.60;99.90;;;;;;5070233;28;20044;-78
2022/07/02 11:51:47;;;;;;;4.28;1.40;;;22.10;99.90;;;;;;5060096;28;20048;-78
2022/07/02 11:54:14;;;;;;;6.22;1.42;;;22.40;99.90;;;;;;5066018;28;20076;-78
2022/07/02 11:56:41;;;;;;;6.07;1.55;;;22.40;99.90;;;;;;5074029;28;20396;-78
2022/07/02 11:59:12;;;;;;;7.15;1.98;;;22.40;99.90;;;;;;5076446;28;20044;-78
2022/07/02 12:01:40;;;;;;;4.68;1.80;;;22.40;99.90;;;;;;5075518;28;20430;-79
2022/07/02 12:04:08;;;;;;;6.55;1.67;;;22.40;99.90;;;;;;5076673;28;20045;-78
2022/07/02 12:06:45;;;;;;;5.07;1.60;;;22.40;99.90;;;;;;5076658;28;20048;-78
2022/07/02 12:09:14;;;;;;;8.07;1.80;;;22.40;99.90;;;;;;5076236;28;20138;-78
2022/07/02 12:11:42;;;;;;;6.05;1.60;;;22.30;99.90;;;;;;5062826;28;20474;-78
2022/07/02 12:14:09;;;;;;;3.03;1.40;;;22.20;99.90;;;;;;5064583;28;20053;-78
2022/07/02 12:16:36;;;;;;;6.68;1.80;;;22.40;99.90;;;;;;5055058;28;20132;-78
2022/07/02 12:19:02;;;;;;;5.97;1.70;;;22.40;99.90;;;;;;5064282;28;20036;-78
2022/07/02 12:21:35;;;;;;;4.82;1.70;;;22.50;99.90;;;;;;5075884;28;20508;-78
2022/07/02 12:24:07;;;;;;;5.47;1.70;;;22.20;99.90;;;;;;5058591;28;20091;-78
2022/07/02 12:26:33;;;;;;;4.00;1.50;;;22.10;99.90;;;;;;5058462;28;20452;-78
2022/07/02 12:31:51;;;;;;;5.43;1.60;;;22.20;99.90;;;;;;5076051;28;20501;-78
2022/07/02 12:34:18;;;;;;;4.63;1.67;;;22.40;99.90;;;;;;5062663;28;20087;-78
2022/07/02 12:36:57;;;;;;;4.60;1.33;;;22.60;99.90;;;;;;5056028;28;20059;-78
2022/07/02 12:39:25;;;;;;;11.02;2.90;;;22.40;99.90;;;;;;5058080;28;20047;-78
2022/07/02 12:41:51;;;;;;;5.75;1.92;;;22.30;99.90;;;;;;5067790;28;20383;-78
2022/07/02 12:44:22;;;;;;;4.63;1.67;;;22.20;99.90;;;;;;5055405;28;20539;-78
2022/07/02 12:46:51;;;;;;;5.43;1.27;;;22.20;99.90;;;;;;5069173;28;20115;-78
2022/07/02 12:49:22;;;;;;;4.90;2.08;;;22.40;99.90;;;;;;5075438;28;20033;-78
2022/07/02 12:52:05;;;;;;;3.40;1.70;;;22.60;99.90;;;;;;5075688;28;20475;-79